Edwards, MO (65326)

9:41 PM CST on March 03, 2015 (GMT -0600)
IVY BEND | Change Station
CLOSE
Current Station
Personal Weather Station
Location: Stover, MO
Elevation: 791 ft
Nearby Weather Stations

Elev 791 ft 38.20 °N, 93.01 °W | Updated 6 minutes ago

Rain
Rain
36.9 °F
Feels Like 37 °F
N
0.0
Wind Variable Wind from NW

Today
High -- | Low -- °F
--% Chance of Precip.
Yesterday
High -- | Low -- °F
Precip. -- in
6:41 AM 6:07 PM
Waxing Gibbous, 98% visible
Pressure 29.92 in
Visibility 5.0 miles
Clouds
Windchill 37 °F
Dew Point 36 °F
Humidity 97%
Rainfall 0.11 in
Snow Depth Not available.
UV Not available.
Pollen 5.80 out of 12
Air Quality Not available.
Flu Activity Not available.
METAR KH21 040335Z AUTO 35004KT 5SM -RA 02/02 A2992 RMK AO2

More Conditions Fewer Conditions

Pressure 29.92 in
Visibility 5.0 miles
Clouds
Windchill 37 °F
Dew Point 36 °F
Humidity 97%
Rainfall 0.11 in
Snow Depth Not available.
UV Not available.
Pollen 5.80 out of 12
Air Quality Not available.
Flu Activity Not available.
METAR KH21 040335Z AUTO 35004KT 5SM -RA 02/02 A2992 RMK AO2

More Conditions Fewer Conditions

10-Day Weather Forecast

Almanac

Astronomy

Mar. 03, 2015 Rise Set
Actual Time
Civil Twilight
Nautical Twilight
Astronomical Twilight
Moon
Length of Visible Light
Length of Day
Tomorrow will be .
, % of the Moon is Illuminated

Today's Extremes

State Highs State Lows

Community

WunderPhotos

Upload Photos

1,802,379 photos uploaded!

WunderBlogs® & News

Nearby

Air Quality

  Air Quality AQ Index Pollutant
Not available.

Snow Depth

Station Depth Elevation

Earthquake Activity

City Distance Mag. Time & Date
Minimum magnitude displayed is 2.5.

Coastal Water Temperatures

Place Temperature

Nearby Weather Stations